Hassler — WTEK — position and weather

sailwx.info

Track history (hours):
 
Tides and Currents Weather Stations Pressure Air Temp Water Temp Dewpoint Dewpoint Depression Visibility Wind Speed Wind Dir Waves Ship Positions

Oceanographic research ship Hassler (USA)

Last reported at 2017-Apr-05 01:04 UTC. Time now 2017-Jun-26 19:07 UTC.
Position N 39°12' W 076°34'.
Warning: this ship's position is months out of date.

Length 37 m; draft 3.8 m.

Type: . MMSI: 369970091.

Date/timePositionNaut miles runAvg speedWind from/ knotsBaromVisibWave heightAir tempDewpointWater temp
2017-Apr-05 01:04N 39°12' W 076°34'0 0.0
2017-Apr-05 00:55N 39°12' W 076°34'1 2.1
2017-Apr-05 00:30N 39°13' W 076°35'2 3.9
2017-Apr-05 00:00N 39°13' W 076°32'3 5.9
2017-Apr-04 23:30N 39°12' W 076°29'3 6.2
2017-Apr-04 23:00N 39°11' W 076°26'3 6.2
2017-Apr-04 22:30N 39°09' W 076°22'3 5.8
2017-Apr-04 21:59N 39°10' W 076°18'4 8.0
2017-Apr-04 21:29N 39°13' W 076°15'4 7.8
2017-Apr-04 20:57N 39°17' W 076°14'3 7.8
2017-Apr-04 20:30N 39°20' W 076°11'4 7.8
2017-Apr-04 20:00N 39°22' W 076°07'4 7.5
2017-Apr-04 19:30N 39°24' W 076°03'4 7.5
2017-Apr-04 19:00N 39°27' W 075°60'4 7.9
2017-Apr-04 18:30N 39°30' W 075°56'4 7.3
2017-Apr-04 18:00N 39°32' W 075°52'3 6.5
2017-Apr-04 17:30N 39°32' W 075°48'3 6.8
2017-Apr-04 17:00N 39°33' W 075°43'3 6.8
2017-Apr-04 16:30N 39°33' W 075°39'3 7.0
2017-Apr-04 16:01N 39°34' W 075°35'2 4.6
2017-Apr-04 15:30N 39°32' W 075°33'3 5.7
2017-Apr-04 15:00N 39°29' W 075°34'3 6.2
2017-Apr-04 14:30N 39°26' W 075°32'6 6.4
2017-Apr-04 13:30N 39°21' W 075°27'3 5.7
2017-Apr-04 13:00N 39°19' W 075°24'3 5.8
2017-Apr-04 12:30N 39°17' W 075°22'3 5.1
2017-Apr-04 12:00N 39°15' W 075°20'3 6.6
2017-Apr-04 11:30N 39°12' W 075°17'3 5.8
2017-Apr-04 11:00N 39°10' W 075°15'3 5.8
2017-Apr-04 10:30N 39°07' W 075°13'3 5.9
2017-Apr-04 10:00N 39°05' W 075°11'3 5.9
2017-Apr-04 09:30N 39°02' W 075°10'34 7.5
2017-Apr-04 05:00N 38°48' W 074°30'3811.1 150 / 231006.310.8 10.5 9.6-6.9
2017-Apr-04 01:34N 39°19' W 074°01'511.6
2017-Apr-04 01:06N 39°23' W 073°57'411.7
2017-Apr-04 00:45N 39°27' W 073°55'511.8
2017-Apr-04 00:19N 39°31' W 073°51'722.6
2017-Apr-04 00:00N 39°30' W 073°42'1017.8 150 / 151015.110.8 8.6 6.4-7.3
2017-Apr-03 23:24N 39°40' W 073°44'511.7
2017-Apr-03 22:57N 39°44' W 073°39'511.7
2017-Apr-03 22:30N 39°47' W 073°33'12311.7
2017-Apr-03 12:00N 41°00' W 071°24'74 9.5 300 / 51020.110.8 5.2 3.0-4.6
2017-Apr-03 04:15N 42°01' W 070°29'3 9.3
2017-Apr-03 03:58N 42°03' W 070°30'4 9.1
2017-Apr-03 03:30N 42°08' W 070°31'4 9.1
2017-Apr-03 03:00N 42°12' W 070°31'510.3
2017-Apr-03 02:30N 42°17' W 070°31'611.4
2017-Apr-03 02:00N 42°23' W 070°31'611.2
2017-Apr-03 01:30N 42°29' W 070°30'612.0
2017-Apr-03 01:00N 42°35' W 070°30'612.1
2017-Apr-03 00:30N 42°41' W 070°31'611.8
2017-Apr-03 00:00N 42°46' W 070°34'7516.9
2017-Apr-03 00:00N 42°48' W 070°24'1020.7 190 / 51014.910.8 5.5 4.0-4.8
2017-Apr-02 23:30N 42°51' W 070°37'611.5
2017-Apr-02 23:00N 42°57' W 070°39'510.7
2017-Apr-02 22:30N 43°02' W 070°42'  
2017-Mar-27 20:43N 43°00' W 070°42'0 0.0 010 / 111014.0 3.8
2017-Mar-27 19:43N 43°00' W 070°42'0 0.0 020 / 151014.5 4.0
2017-Mar-27 18:43N 43°00' W 070°42'0 0.0 040 / 131015.6 4.0
2017-Mar-27 17:43N 43°00' W 070°42'0 0.0 030 / 131016.6 4.0
2017-Mar-27 16:43N 43°00' W 070°42'0 0.0 050 / 151017.2 3.9
2017-Mar-27 15:43N 43°00' W 070°42'0 0.0 060 / 121018.6 4.0
2017-Mar-27 14:43N 43°00' W 070°42'0 0.0 070 / 101019.5 3.8
2017-Mar-27 13:44N 43°00' W 070°42'0 0.0 070 / 101020.3 3.6
2017-Mar-27 12:44N 43°00' W 070°42'0 0.0 080 / 131020.9 3.3
2017-Mar-27 11:44N 43°00' W 070°42'0 0.0 080 / 131022.0 2.8
2017-Mar-27 10:44N 43°00' W 070°42'0 0.0 080 / 111022.7 2.5
2017-Mar-27 09:44N 43°00' W 070°42'0 0.0 090 / 121023.2 2.5
2017-Mar-27 08:44N 43°00' W 070°42'0 0.0 100 / 81024.1 3.2
2017-Mar-27 07:44N 43°00' W 070°42'0 0.0 100 / 81024.6 3.0
2017-Mar-27 06:44N 43°00' W 070°42'0 0.0 110 / 81025.1 3.2
2017-Mar-27 05:44N 43°00' W 070°42'0 0.0 100 / 61025.8 3.0
2017-Mar-27 04:44N 43°00' W 070°42'0 0.0 110 / 61026.5 3.0
2017-Mar-27 03:44N 43°00' W 070°42'0 0.0 110 / 81027.5 2.8
2017-Mar-27 02:44N 43°00' W 070°42'0 0.0 110 / 71027.8 2.6
2017-Mar-27 01:44N 43°00' W 070°42'0 0.0 100 / 81028.3 2.3
2017-Mar-27 00:44N 43°00' W 070°42'0 0.0 100 / 81028.9 2.2
2017-Mar-26 22:45N 43°00' W 070°42'0 0.0 130 / 71030.4 2.0
2017-Mar-26 21:45N 43°00' W 070°42'0 0.0 130 / 91030.6 1.8
2017-Mar-26 20:45N 43°00' W 070°42'0 0.0 120 / 71030.9 1.8
2017-Mar-26 19:45N 43°00' W 070°42'0 0.0 080 / 51030.9 1.6
2017-Mar-26 18:45N 43°00' W 070°42'0 0.0 090 / 71031.5 1.3
2017-Mar-26 17:45N 43°00' W 070°42'0 0.0 060 / 71032.1 1.3
2017-Mar-26 16:45N 43°00' W 070°42'0 0.0 050 / 121032.4 1.6
2017-Mar-26 15:45N 43°00' W 070°42'0 0.0 050 / 111033.0 1.1
2017-Mar-26 14:45N 43°00' W 070°42'0 0.0 030 / 141032.9 1.0
2017-Mar-26 13:45N 43°00' W 070°42'0 0.0 040 / 141032.3 1.1
2017-Mar-26 12:45N 43°00' W 070°42'0 0.0 030 / 121032.0 1.1
2017-Mar-26 11:45N 43°00' W 070°42'0 0.0 340 / 31032.2 -1.2
2017-Mar-26 10:46N 43°00' W 070°42'0 0.0 320 / 31032.0 -2.0
2017-Mar-26 09:46N 43°00' W 070°42'0 0.0 330 / 21031.1 -1.4
2017-Mar-26 08:46N 43°00' W 070°42'0 0.0 330 / 31030.3 -0.7
2017-Mar-26 07:46N 43°00' W 070°42'0 0.0 360 / 91029.1 -0.5
2017-Mar-26 06:46N 43°00' W 070°42'0 0.0 350 / 51029.4 -0.5
2017-Mar-26 05:46N 43°00' W 070°42'0 0.0 330 / 21028.7 -0.7
2017-Mar-26 04:46N 43°00' W 070°42'0 0.0 330 / 11028.5 -0.4
2017-Mar-26 03:46N 43°00' W 070°42'0 0.0 300 / 41027.7 -0.0
2017-Mar-26 02:46N 43°00' W 070°42'0 0.0 310 / 51027.0 -0.1
2017-Mar-26 01:46N 43°00' W 070°42'   310 / 31026.6 0.9
Track history (hours):
 
Tides and Currents Weather Stations Pressure Air Temp Water Temp Dewpoint Dewpoint Depression Visibility Wind Speed Wind Dir Waves Ship Positions

Oceanographic research ship Hassler (USA)

Last reported at 2017-Apr-05 01:04 UTC. Time now 2017-Jun-26 19:07 UTC.
Position N 39°12' W 076°34'.
Warning: this ship's position is months out of date.

Length 37 m; draft 3.8 m.

Type: . MMSI: 369970091.

Date/timePositionNaut miles runAvg speedWind from/ knotsBaromVisibWave heightAir tempDewpointWater temp
2017-Apr-05 01:04N 39°12' W 076°34'0 0.0
2017-Apr-05 00:55N 39°12' W 076°34'1 2.1
2017-Apr-05 00:30N 39°13' W 076°35'2 3.9
2017-Apr-05 00:00N 39°13' W 076°32'3 5.9
2017-Apr-04 23:30N 39°12' W 076°29'3 6.2
2017-Apr-04 23:00N 39°11' W 076°26'3 6.2
2017-Apr-04 22:30N 39°09' W 076°22'3 5.8
2017-Apr-04 21:59N 39°10' W 076°18'4 8.0
2017-Apr-04 21:29N 39°13' W 076°15'4 7.8
2017-Apr-04 20:57N 39°17' W 076°14'3 7.8
2017-Apr-04 20:30N 39°20' W 076°11'4 7.8
2017-Apr-04 20:00N 39°22' W 076°07'4 7.5
2017-Apr-04 19:30N 39°24' W 076°03'4 7.5
2017-Apr-04 19:00N 39°27' W 075°60'4 7.9
2017-Apr-04 18:30N 39°30' W 075°56'4 7.3
2017-Apr-04 18:00N 39°32' W 075°52'3 6.5
2017-Apr-04 17:30N 39°32' W 075°48'3 6.8
2017-Apr-04 17:00N 39°33' W 075°43'3 6.8
2017-Apr-04 16:30N 39°33' W 075°39'3 7.0
2017-Apr-04 16:01N 39°34' W 075°35'2 4.6
2017-Apr-04 15:30N 39°32' W 075°33'3 5.7
2017-Apr-04 15:00N 39°29' W 075°34'3 6.2
2017-Apr-04 14:30N 39°26' W 075°32'6 6.4
2017-Apr-04 13:30N 39°21' W 075°27'3 5.7
2017-Apr-04 13:00N 39°19' W 075°24'3 5.8
2017-Apr-04 12:30N 39°17' W 075°22'3 5.1
2017-Apr-04 12:00N 39°15' W 075°20'3 6.6
2017-Apr-04 11:30N 39°12' W 075°17'3 5.8
2017-Apr-04 11:00N 39°10' W 075°15'3 5.8
2017-Apr-04 10:30N 39°07' W 075°13'3 5.9
2017-Apr-04 10:00N 39°05' W 075°11'3 5.9
2017-Apr-04 09:30N 39°02' W 075°10'34 7.5
2017-Apr-04 05:00N 38°48' W 074°30'3811.1 150 / 231006.310.8 10.5 9.6-6.9
2017-Apr-04 01:34N 39°19' W 074°01'511.6
2017-Apr-04 01:06N 39°23' W 073°57'411.7
2017-Apr-04 00:45N 39°27' W 073°55'511.8
2017-Apr-04 00:19N 39°31' W 073°51'722.6
2017-Apr-04 00:00N 39°30' W 073°42'1017.8 150 / 151015.110.8 8.6 6.4-7.3
2017-Apr-03 23:24N 39°40' W 073°44'511.7
2017-Apr-03 22:57N 39°44' W 073°39'511.7
2017-Apr-03 22:30N 39°47' W 073°33'12311.7
2017-Apr-03 12:00N 41°00' W 071°24'74 9.5 300 / 51020.110.8 5.2 3.0-4.6
2017-Apr-03 04:15N 42°01' W 070°29'3 9.3
2017-Apr-03 03:58N 42°03' W 070°30'4 9.1
2017-Apr-03 03:30N 42°08' W 070°31'4 9.1
2017-Apr-03 03:00N 42°12' W 070°31'510.3
2017-Apr-03 02:30N 42°17' W 070°31'611.4
2017-Apr-03 02:00N 42°23' W 070°31'611.2
2017-Apr-03 01:30N 42°29' W 070°30'612.0
2017-Apr-03 01:00N 42°35' W 070°30'612.1
2017-Apr-03 00:30N 42°41' W 070°31'611.8
2017-Apr-03 00:00N 42°46' W 070°34'7516.9
2017-Apr-03 00:00N 42°48' W 070°24'1020.7 190 / 51014.910.8 5.5 4.0-4.8
2017-Apr-02 23:30N 42°51' W 070°37'611.5
2017-Apr-02 23:00N 42°57' W 070°39'510.7
2017-Apr-02 22:30N 43°02' W 070°42'  
2017-Mar-27 20:43N 43°00' W 070°42'0 0.0 010 / 111014.0 3.8
2017-Mar-27 19:43N 43°00' W 070°42'0 0.0 020 / 151014.5 4.0
2017-Mar-27 18:43N 43°00' W 070°42'0 0.0 040 / 131015.6 4.0
2017-Mar-27 17:43N 43°00' W 070°42'0 0.0 030 / 131016.6 4.0
2017-Mar-27 16:43N 43°00' W 070°42'0 0.0 050 / 151017.2 3.9
2017-Mar-27 15:43N 43°00' W 070°42'0 0.0 060 / 121018.6 4.0
2017-Mar-27 14:43N 43°00' W 070°42'0 0.0 070 / 101019.5 3.8
2017-Mar-27 13:44N 43°00' W 070°42'0 0.0 070 / 101020.3 3.6
2017-Mar-27 12:44N 43°00' W 070°42'0 0.0 080 / 131020.9 3.3
2017-Mar-27 11:44N 43°00' W 070°42'0 0.0 080 / 131022.0 2.8
2017-Mar-27 10:44N 43°00' W 070°42'0 0.0 080 / 111022.7 2.5
2017-Mar-27 09:44N 43°00' W 070°42'0 0.0 090 / 121023.2 2.5
2017-Mar-27 08:44N 43°00' W 070°42'0 0.0 100 / 81024.1 3.2
2017-Mar-27 07:44N 43°00' W 070°42'0 0.0 100 / 81024.6 3.0
2017-Mar-27 06:44N 43°00' W 070°42'0 0.0 110 / 81025.1 3.2
2017-Mar-27 05:44N 43°00' W 070°42'0 0.0 100 / 61025.8 3.0
2017-Mar-27 04:44N 43°00' W 070°42'0 0.0 110 / 61026.5 3.0
2017-Mar-27 03:44N 43°00' W 070°42'0 0.0 110 / 81027.5 2.8
2017-Mar-27 02:44N 43°00' W 070°42'0 0.0 110 / 71027.8 2.6
2017-Mar-27 01:44N 43°00' W 070°42'0 0.0 100 / 81028.3 2.3
2017-Mar-27 00:44N 43°00' W 070°42'0 0.0 100 / 81028.9 2.2
2017-Mar-26 22:45N 43°00' W 070°42'0 0.0 130 / 71030.4 2.0
2017-Mar-26 21:45N 43°00' W 070°42'0 0.0 130 / 91030.6 1.8
2017-Mar-26 20:45N 43°00' W 070°42'0 0.0 120 / 71030.9 1.8
2017-Mar-26 19:45N 43°00' W 070°42'0 0.0 080 / 51030.9 1.6
2017-Mar-26 18:45N 43°00' W 070°42'0 0.0 090 / 71031.5 1.3
2017-Mar-26 17:45N 43°00' W 070°42'0 0.0 060 / 71032.1 1.3
2017-Mar-26 16:45N 43°00' W 070°42'0 0.0 050 / 121032.4 1.6
2017-Mar-26 15:45N 43°00' W 070°42'0 0.0 050 / 111033.0 1.1
2017-Mar-26 14:45N 43°00' W 070°42'0 0.0 030 / 141032.9 1.0
2017-Mar-26 13:45N 43°00' W 070°42'0 0.0 040 / 141032.3 1.1
2017-Mar-26 12:45N 43°00' W 070°42'0 0.0 030 / 121032.0 1.1
2017-Mar-26 11:45N 43°00' W 070°42'0 0.0 340 / 31032.2 -1.2
2017-Mar-26 10:46N 43°00' W 070°42'0 0.0 320 / 31032.0 -2.0
2017-Mar-26 09:46N 43°00' W 070°42'0 0.0 330 / 21031.1 -1.4
2017-Mar-26 08:46N 43°00' W 070°42'0 0.0 330 / 31030.3 -0.7
2017-Mar-26 07:46N 43°00' W 070°42'0 0.0 360 / 91029.1 -0.5
2017-Mar-26 06:46N 43°00' W 070°42'0 0.0 350 / 51029.4 -0.5
2017-Mar-26 05:46N 43°00' W 070°42'0 0.0 330 / 21028.7 -0.7
2017-Mar-26 04:46N 43°00' W 070°42'0 0.0 330 / 11028.5 -0.4
2017-Mar-26 03:46N 43°00' W 070°42'0 0.0 300 / 41027.7 -0.0
2017-Mar-26 02:46N 43°00' W 070°42'0 0.0 310 / 51027.0 -0.1
2017-Mar-26 01:46N 43°00' W 070°42'   310 / 31026.6 0.9

Dump ship's entire track history